sensor_id;sensor_type;location;lat;lon;timestamp;temperature;humidity
40676;DHT22;26359;48.750;9.314;2023-11-22T00:00:42;8.20;99.90
40676;DHT22;26359;48.750;9.314;2023-11-22T00:03:07;8.20;99.90
40676;DHT22;26359;48.750;9.314;2023-11-22T00:05:33;8.20;99.90
40676;DHT22;26359;48.750;9.314;2023-11-22T00:07:58;8.20;99.90
40676;DHT22;26359;48.750;9.314;2023-11-22T00:10:24;8.20;99.90
40676;DHT22;26359;48.750;9.314;2023-11-22T00:12:49;8.20;99.90
40676;DHT22;26359;48.750;9.314;2023-11-22T00:15:15;8.20;99.90
40676;DHT22;26359;48.750;9.314;2023-11-22T00:17:44;8.20;99.90
40676;DHT22;26359;48.750;9.314;2023-11-22T00:20:10;8.20;99.90
40676;DHT22;26359;48.750;9.314;2023-11-22T00:22:36;8.20;99.90
40676;DHT22;26359;48.750;9.314;2023-11-22T00:25:01;8.10;99.90
40676;DHT22;26359;48.750;9.314;2023-11-22T00:27:28;7.90;99.90
40676;DHT22;26359;48.750;9.314;2023-11-22T00:29:55;7.80;99.90
40676;DHT22;26359;48.750;9.314;2023-11-22T00:32:20;7.60;99.90
40676;DHT22;26359;48.750;9.314;2023-11-22T00:34:46;7.60;99.90
40676;DHT22;26359;48.750;9.314;2023-11-22T00:37:13;7.40;99.90
40676;DHT22;26359;48.750;9.314;2023-11-22T00:39:38;7.20;99.90
40676;DHT22;26359;48.750;9.314;2023-11-22T00:42:04;7.00;99.90
40676;DHT22;26359;48.750;9.314;2023-11-22T00:44:30;6.90;99.90
40676;DHT22;26359;48.750;9.314;2023-11-22T00:46:56;6.80;99.90
40676;DHT22;26359;48.750;9.314;2023-11-22T00:49:23;6.70;99.90
40676;DHT22;26359;48.750;9.314;2023-11-22T00:51:48;6.60;99.90
40676;DHT22;26359;48.750;9.314;2023-11-22T00:54:14;6.50;99.90
40676;DHT22;26359;48.750;9.314;2023-11-22T00:56:40;6.50;99.90
40676;DHT22;26359;48.750;9.314;2023-11-22T00:59:06;6.40;99.90
40676;DHT22;26359;48.750;9.314;2023-11-22T01:01:31;6.40;99.90
40676;DHT22;26359;48.750;9.314;2023-11-22T01:03:57;6.40;99.90
40676;DHT22;26359;48.750;9.314;2023-11-22T01:06:23;6.30;99.90
40676;DHT22;26359;48.750;9.314;2023-11-22T01:08:49;6.30;99.90
40676;DHT22;26359;48.750;9.314;2023-11-22T01:11:15;6.30;99.90
40676;DHT22;26359;48.750;9.314;2023-11-22T01:13:40;6.30;99.90
40676;DHT22;26359;48.750;9.314;2023-11-22T01:16:08;6.30;99.90
40676;DHT22;26359;48.750;9.314;2023-11-22T01:18:33;6.20;99.90
40676;DHT22;26359;48.750;9.314;2023-11-22T01:20:59;6.20;99.90
40676;DHT22;26359;48.750;9.314;2023-11-22T01:23:24;6.20;99.90
40676;DHT22;26359;48.750;9.314;2023-11-22T01:25:50;6.10;99.90
40676;DHT22;26359;48.750;9.314;2023-11-22T01:28:16;6.00;99.90
40676;DHT22;26359;48.750;9.314;2023-11-22T01:30:43;6.00;99.90
40676;DHT22;26359;48.750;9.314;2023-11-22T01:33:14;6.00;99.90
40676;DHT22;26359;48.750;9.314;2023-11-22T01:35:40;6.00;99.90
40676;DHT22;26359;48.750;9.314;2023-11-22T01:38:05;6.00;99.90
40676;DHT22;26359;48.750;9.314;2023-11-22T01:40:31;5.90;99.90
40676;DHT22;26359;48.750;9.314;2023-11-22T01:42:57;5.90;99.90
40676;DHT22;26359;48.750;9.314;2023-11-22T01:45:23;5.90;99.90
40676;DHT22;26359;48.750;9.314;2023-11-22T01:47:49;5.90;99.90
40676;DHT22;26359;48.750;9.314;2023-11-22T01:50:15;5.90;99.90
40676;DHT22;26359;48.750;9.314;2023-11-22T01:52:41;5.90;99.90
40676;DHT22;26359;48.750;9.314;2023-11-22T01:55:08;5.90;99.90
40676;DHT22;26359;48.750;9.314;2023-11-22T01:57:34;5.80;99.90
40676;DHT22;26359;48.750;9.314;2023-11-22T02:00:02;5.80;99.90
40676;DHT22;26359;48.750;9.314;2023-11-22T02:02:29;5.90;99.90
40676;DHT22;26359;48.750;9.314;2023-11-22T02:04:55;5.90;99.90
40676;DHT22;26359;48.750;9.314;2023-11-22T02:07:21;5.90;99.90
40676;DHT22;26359;48.750;9.314;2023-11-22T02:09:47;5.90;99.90
40676;DHT22;26359;48.750;9.314;2023-11-22T02:12:12;5.90;99.90
40676;DHT22;26359;48.750;9.314;2023-11-22T02:14:38;5.90;99.90
40676;DHT22;26359;48.750;9.314;2023-11-22T02:17:04;5.90;99.90
40676;DHT22;26359;48.750;9.314;2023-11-22T02:19:29;5.90;99.90
40676;DHT22;26359;48.750;9.314;2023-11-22T02:21:55;5.80;99.90
40676;DHT22;26359;48.750;9.314;2023-11-22T02:24:21;5.80;99.90
40676;DHT22;26359;48.750;9.314;2023-11-22T02:26:47;5.80;99.90
40676;DHT22;26359;48.750;9.314;2023-11-22T02:29:12;5.80;99.90
40676;DHT22;26359;48.750;9.314;2023-11-22T02:31:40;5.80;99.90
40676;DHT22;26359;48.750;9.314;2023-11-22T02:34:09;5.70;99.90
40676;DHT22;26359;48.750;9.314;2023-11-22T02:36:34;5.70;99.90
40676;DHT22;26359;48.750;9.314;2023-11-22T02:39:00;5.60;99.90
40676;DHT22;26359;48.750;9.314;2023-11-22T02:41:29;5.60;99.90
40676;DHT22;26359;48.750;9.314;2023-11-22T02:43:57;5.50;99.90
40676;DHT22;26359;48.750;9.314;2023-11-22T02:46:23;5.40;99.90
40676;DHT22;26359;48.750;9.314;2023-11-22T02:48:49;5.40;99.90
40676;DHT22;26359;48.750;9.314;2023-11-22T02:51:14;5.40;99.90
40676;DHT22;26359;48.750;9.314;2023-11-22T02:53:42;5.40;99.90
40676;DHT22;26359;48.750;9.314;2023-11-22T02:56:09;5.40;99.90
40676;DHT22;26359;48.750;9.314;2023-11-22T02:58:35;5.40;99.90
40676;DHT22;26359;48.750;9.314;2023-11-22T03:01:01;5.30;99.90
40676;DHT22;26359;48.750;9.314;2023-11-22T03:03:27;5.30;99.90
40676;DHT22;26359;48.750;9.314;2023-11-22T03:05:53;5.20;99.90
40676;DHT22;26359;48.750;9.314;2023-11-22T03:08:19;5.20;99.90
40676;DHT22;26359;48.750;9.314;2023-11-22T03:10:44;5.20;99.90
40676;DHT22;26359;48.750;9.314;2023-11-22T03:13:10;5.20;99.90
40676;DHT22;26359;48.750;9.314;2023-11-22T03:15:36;5.20;99.90
40676;DHT22;26359;48.750;9.314;2023-11-22T03:18:01;5.20;99.90
40676;DHT22;26359;48.750;9.314;2023-11-22T03:20:28;5.10;99.90
40676;DHT22;26359;48.750;9.314;2023-11-22T03:22:54;5.00;99.90
40676;DHT22;26359;48.750;9.314;2023-11-22T03:25:20;5.00;99.90
40676;DHT22;26359;48.750;9.314;2023-11-22T03:27:46;5.00;99.90
40676;DHT22;26359;48.750;9.314;2023-11-22T03:30:12;5.00;99.90
40676;DHT22;26359;48.750;9.314;2023-11-22T03:32:40;5.00;99.90
40676;DHT22;26359;48.750;9.314;2023-11-22T03:35:07;5.00;99.90
40676;DHT22;26359;48.750;9.314;2023-11-22T03:37:33;5.00;99.90
40676;DHT22;26359;48.750;9.314;2023-11-22T03:39:59;4.90;99.90
40676;DHT22;26359;48.750;9.314;2023-11-22T03:42:24;4.90;99.90
40676;DHT22;26359;48.750;9.314;2023-11-22T03:44:50;4.90;99.90
40676;DHT22;26359;48.750;9.314;2023-11-22T03:47:16;4.80;99.90
40676;DHT22;26359;48.750;9.314;2023-11-22T03:49:41;4.80;99.90
40676;DHT22;26359;48.750;9.314;2023-11-22T03:52:09;4.80;99.90
40676;DHT22;26359;48.750;9.314;2023-11-22T03:54:35;4.70;99.90
40676;DHT22;26359;48.750;9.314;2023-11-22T03:57:00;4.60;99.90
40676;DHT22;26359;48.750;9.314;2023-11-22T03:59:26;4.60;99.90
40676;DHT22;26359;48.750;9.314;2023-11-22T04:01:52;4.60;99.90
40676;DHT22;26359;48.750;9.314;2023-11-22T04:04:17;4.50;99.90
40676;DHT22;26359;48.750;9.314;2023-11-22T04:06:43;4.50;99.90
40676;DHT22;26359;48.750;9.314;2023-11-22T04:09:08;4.50;99.90
40676;DHT22;26359;48.750;9.314;2023-11-22T04:11:37;4.40;99.90
40676;DHT22;26359;48.750;9.314;2023-11-22T04:14:03;4.40;99.90
40676;DHT22;26359;48.750;9.314;2023-11-22T04:16:29;4.40;99.90
40676;DHT22;26359;48.750;9.314;2023-11-22T04:18:54;4.40;99.90
40676;DHT22;26359;48.750;9.314;2023-11-22T04:21:20;4.40;99.90
40676;DHT22;26359;48.750;9.314;2023-11-22T04:23:45;4.40;99.90
40676;DHT22;26359;48.750;9.314;2023-11-22T04:26:11;4.30;99.90
40676;DHT22;26359;48.750;9.314;2023-11-22T04:28:36;4.30;99.90
40676;DHT22;26359;48.750;9.314;2023-11-22T04:31:02;4.20;99.90
40676;DHT22;26359;48.750;9.314;2023-11-22T04:33:27;4.20;99.90
40676;DHT22;26359;48.750;9.314;2023-11-22T04:35:53;4.20;99.90
40676;DHT22;26359;48.750;9.314;2023-11-22T04:38:19;4.20;99.90
40676;DHT22;26359;48.750;9.314;2023-11-22T04:40:45;4.20;99.90
40676;DHT22;26359;48.750;9.314;2023-11-22T04:43:11;4.20;99.90
40676;DHT22;26359;48.750;9.314;2023-11-22T04:45:36;4.10;99.90
40676;DHT22;26359;48.750;9.314;2023-11-22T04:48:03;4.10;99.90
40676;DHT22;26359;48.750;9.314;2023-11-22T04:50:28;4.10;99.90
40676;DHT22;26359;48.750;9.314;2023-11-22T04:52:54;4.20;99.90
40676;DHT22;26359;48.750;9.314;2023-11-22T04:55:20;4.20;99.90
40676;DHT22;26359;48.750;9.314;2023-11-22T04:57:46;4.20;99.90
40676;DHT22;26359;48.750;9.314;2023-11-22T05:00:12;4.20;99.90
40676;DHT22;26359;48.750;9.314;2023-11-22T05:02:38;4.20;99.90
40676;DHT22;26359;48.750;9.314;2023-11-22T05:05:05;4.20;99.90
40676;DHT22;26359;48.750;9.314;2023-11-22T05:07:31;4.10;99.90
40676;DHT22;26359;48.750;9.314;2023-11-22T05:09:57;4.10;99.90
40676;DHT22;26359;48.750;9.314;2023-11-22T05:12:22;4.10;99.90
40676;DHT22;26359;48.750;9.314;2023-11-22T05:14:48;4.10;99.90
40676;DHT22;26359;48.750;9.314;2023-11-22T05:17:14;4.00;99.90
40676;DHT22;26359;48.750;9.314;2023-11-22T05:19:39;4.00;99.90
40676;DHT22;26359;48.750;9.314;2023-11-22T05:22:05;4.00;99.90
40676;DHT22;26359;48.750;9.314;2023-11-22T05:24:30;4.00;99.90
40676;DHT22;26359;48.750;9.314;2023-11-22T05:26:56;3.90;99.90
40676;DHT22;26359;48.750;9.314;2023-11-22T05:29:22;3.90;99.90
40676;DHT22;26359;48.750;9.314;2023-11-22T05:31:47;3.90;99.90
40676;DHT22;26359;48.750;9.314;2023-11-22T05:34:13;3.90;99.90
40676;DHT22;26359;48.750;9.314;2023-11-22T05:36:39;3.90;99.90
40676;DHT22;26359;48.750;9.314;2023-11-22T05:39:05;3.90;99.90
40676;DHT22;26359;48.750;9.314;2023-11-22T05:41:31;3.90;99.90
40676;DHT22;26359;48.750;9.314;2023-11-22T05:43:57;3.90;99.90
40676;DHT22;26359;48.750;9.314;2023-11-22T05:46:23;3.90;99.90
40676;DHT22;26359;48.750;9.314;2023-11-22T05:48:51;3.90;99.90
40676;DHT22;26359;48.750;9.314;2023-11-22T05:51:17;3.90;99.90
40676;DHT22;26359;48.750;9.314;2023-11-22T05:53:43;3.90;99.90
40676;DHT22;26359;48.750;9.314;2023-11-22T05:56:08;3.90;99.90
40676;DHT22;26359;48.750;9.314;2023-11-22T05:58:34;3.90;99.90
40676;DHT22;26359;48.750;9.314;2023-11-22T06:01:04;4.00;99.90
40676;DHT22;26359;48.750;9.314;2023-11-22T06:03:29;4.00;99.90
40676;DHT22;26359;48.750;9.314;2023-11-22T06:05:55;4.00;99.90
40676;DHT22;26359;48.750;9.314;2023-11-22T06:08:22;4.00;99.90
40676;DHT22;26359;48.750;9.314;2023-11-22T06:10:48;4.10;99.90
40676;DHT22;26359;48.750;9.314;2023-11-22T06:13:14;4.10;99.90
40676;DHT22;26359;48.750;9.314;2023-11-22T06:15:40;4.10;99.90
40676;DHT22;26359;48.750;9.314;2023-11-22T06:18:06;4.10;99.90
40676;DHT22;26359;48.750;9.314;2023-11-22T06:20:31;4.10;99.90
40676;DHT22;26359;48.750;9.314;2023-11-22T06:22:57;4.10;99.90
40676;DHT22;26359;48.750;9.314;2023-11-22T06:25:22;4.10;99.90
40676;DHT22;26359;48.750;9.314;2023-11-22T06:27:48;4.10;99.90
40676;DHT22;26359;48.750;9.314;2023-11-22T06:30:13;4.10;99.90
40676;DHT22;26359;48.750;9.314;2023-11-22T06:32:40;4.10;99.90
40676;DHT22;26359;48.750;9.314;2023-11-22T06:35:08;4.10;99.90
40676;DHT22;26359;48.750;9.314;2023-11-22T06:37:34;4.20;99.90
40676;DHT22;26359;48.750;9.314;2023-11-22T06:40:00;4.10;99.90
40676;DHT22;26359;48.750;9.314;2023-11-22T06:42:26;4.10;99.90
40676;DHT22;26359;48.750;9.314;2023-11-22T06:44:52;4.10;99.90
40676;DHT22;26359;48.750;9.314;2023-11-22T06:47:19;4.20;99.90
40676;DHT22;26359;48.750;9.314;2023-11-22T06:49:44;4.20;99.90
40676;DHT22;26359;48.750;9.314;2023-11-22T06:52:10;4.20;99.90
40676;DHT22;26359;48.750;9.314;2023-11-22T06:54:35;4.20;99.90
40676;DHT22;26359;48.750;9.314;2023-11-22T06:57:02;4.20;99.90
40676;DHT22;26359;48.750;9.314;2023-11-22T06:59:28;4.20;99.90
40676;DHT22;26359;48.750;9.314;2023-11-22T07:01:54;4.20;99.90
40676;DHT22;26359;48.750;9.314;2023-11-22T07:04:21;4.20;99.90
40676;DHT22;26359;48.750;9.314;2023-11-22T07:06:48;4.20;99.90
40676;DHT22;26359;48.750;9.314;2023-11-22T07:09:14;4.20;99.90
40676;DHT22;26359;48.750;9.314;2023-11-22T07:11:40;4.20;99.90
40676;DHT22;26359;48.750;9.314;2023-11-22T07:14:05;4.20;99.90
40676;DHT22;26359;48.750;9.314;2023-11-22T07:16:32;4.30;99.90
40676;DHT22;26359;48.750;9.314;2023-11-22T07:18:59;4.30;99.90
40676;DHT22;26359;48.750;9.314;2023-11-22T07:21:25;4.20;99.90
40676;DHT22;26359;48.750;9.314;2023-11-22T07:23:51;4.20;99.90
40676;DHT22;26359;48.750;9.314;2023-11-22T07:26:17;4.20;99.90
40676;DHT22;26359;48.750;9.314;2023-11-22T07:28:43;4.20;99.90
40676;DHT22;26359;48.750;9.314;2023-11-22T07:31:09;4.20;99.90
40676;DHT22;26359;48.750;9.314;2023-11-22T07:33:35;4.30;99.90
40676;DHT22;26359;48.750;9.314;2023-11-22T07:36:00;4.30;99.90
40676;DHT22;26359;48.750;9.314;2023-11-22T07:38:26;4.30;99.90
40676;DHT22;26359;48.750;9.314;2023-11-22T07:40:52;4.30;99.90
40676;DHT22;26359;48.750;9.314;2023-11-22T07:43:18;4.30;99.90
40676;DHT22;26359;48.750;9.314;2023-11-22T07:45:44;4.30;99.90
40676;DHT22;26359;48.750;9.314;2023-11-22T07:48:12;4.20;99.90
40676;DHT22;26359;48.750;9.314;2023-11-22T07:50:38;4.20;99.90
40676;DHT22;26359;48.750;9.314;2023-11-22T07:53:04;4.20;99.90
40676;DHT22;26359;48.750;9.314;2023-11-22T07:55:30;4.10;99.90
40676;DHT22;26359;48.750;9.314;2023-11-22T07:57:56;4.10;99.90
40676;DHT22;26359;48.750;9.314;2023-11-22T08:00:22;4.00;99.90
40676;DHT22;26359;48.750;9.314;2023-11-22T08:02:48;4.10;99.90
40676;DHT22;26359;48.750;9.314;2023-11-22T08:05:15;4.00;99.90
40676;DHT22;26359;48.750;9.314;2023-11-22T08:07:43;4.00;99.90
40676;DHT22;26359;48.750;9.314;2023-11-22T08:10:11;4.00;99.90
40676;DHT22;26359;48.750;9.314;2023-11-22T08:12:45;4.00;99.90
40676;DHT22;26359;48.750;9.314;2023-11-22T08:15:12;4.00;99.90
40676;DHT22;26359;48.750;9.314;2023-11-22T08:17:39;4.00;99.90
40676;DHT22;26359;48.750;9.314;2023-11-22T08:20:05;3.90;99.90
40676;DHT22;26359;48.750;9.314;2023-11-22T08:22:34;3.90;99.90
40676;DHT22;26359;48.750;9.314;2023-11-22T08:25:04;3.90;99.90
40676;DHT22;26359;48.750;9.314;2023-11-22T08:27:29;3.90;99.90
40676;DHT22;26359;48.750;9.314;2023-11-22T08:29:55;3.80;99.90
40676;DHT22;26359;48.750;9.314;2023-11-22T08:32:21;3.80;99.90
40676;DHT22;26359;48.750;9.314;2023-11-22T08:34:49;3.80;99.90
40676;DHT22;26359;48.750;9.314;2023-11-22T08:37:15;3.80;99.90
40676;DHT22;26359;48.750;9.314;2023-11-22T08:39:41;3.80;99.90
40676;DHT22;26359;48.750;9.314;2023-11-22T08:42:06;3.80;99.90
40676;DHT22;26359;48.750;9.314;2023-11-22T08:44:37;3.80;99.90
40676;DHT22;26359;48.750;9.314;2023-11-22T08:47:03;3.80;99.90
40676;DHT22;26359;48.750;9.314;2023-11-22T08:49:29;3.80;99.90
40676;DHT22;26359;48.750;9.314;2023-11-22T08:51:56;3.90;99.90
40676;DHT22;26359;48.750;9.314;2023-11-22T08:54:21;3.90;99.90
40676;DHT22;26359;48.750;9.314;2023-11-22T08:56:47;3.90;99.90
40676;DHT22;26359;48.750;9.314;2023-11-22T08:59:13;4.00;99.90
40676;DHT22;26359;48.750;9.314;2023-11-22T09:01:38;4.00;99.90
40676;DHT22;26359;48.750;9.314;2023-11-22T09:04:04;4.00;99.90
40676;DHT22;26359;48.750;9.314;2023-11-22T09:06:30;4.00;99.90
40676;DHT22;26359;48.750;9.314;2023-11-22T09:08:56;4.00;99.90
40676;DHT22;26359;48.750;9.314;2023-11-22T09:11:22;4.00;99.90
40676;DHT22;26359;48.750;9.314;2023-11-22T09:13:48;4.00;99.90
40676;DHT22;26359;48.750;9.314;2023-11-22T09:16:15;3.90;99.90
40676;DHT22;26359;48.750;9.314;2023-11-22T09:18:42;3.90;99.90
40676;DHT22;26359;48.750;9.314;2023-11-22T09:21:08;3.90;99.90
40676;DHT22;26359;48.750;9.314;2023-11-22T09:23:35;3.90;99.90
40676;DHT22;26359;48.750;9.314;2023-11-22T09:26:02;3.90;99.90
40676;DHT22;26359;48.750;9.314;2023-11-22T09:28:28;4.00;99.90
40676;DHT22;26359;48.750;9.314;2023-11-22T09:30:54;4.00;99.90
40676;DHT22;26359;48.750;9.314;2023-11-22T09:33:26;4.00;99.90
40676;DHT22;26359;48.750;9.314;2023-11-22T09:35:52;4.00;99.90
40676;DHT22;26359;48.750;9.314;2023-11-22T09:38:17;4.10;99.90
40676;DHT22;26359;48.750;9.314;2023-11-22T09:40:48;4.10;99.90
40676;DHT22;26359;48.750;9.314;2023-11-22T09:43:15;4.10;99.90
40676;DHT22;26359;48.750;9.314;2023-11-22T09:45:48;4.20;99.90
40676;DHT22;26359;48.750;9.314;2023-11-22T09:48:16;4.20;99.90
40676;DHT22;26359;48.750;9.314;2023-11-22T09:50:52;4.20;99.90
40676;DHT22;26359;48.750;9.314;2023-11-22T09:53:25;4.30;99.90
40676;DHT22;26359;48.750;9.314;2023-11-22T09:55:55;4.30;99.90
40676;DHT22;26359;48.750;9.314;2023-11-22T09:58:21;4.30;99.90
40676;DHT22;26359;48.750;9.314;2023-11-22T10:00:47;4.40;99.90
40676;DHT22;26359;48.750;9.314;2023-11-22T10:03:13;4.30;99.90
40676;DHT22;26359;48.750;9.314;2023-11-22T10:05:43;4.30;99.90
40676;DHT22;26359;48.750;9.314;2023-11-22T10:08:08;4.40;99.90
40676;DHT22;26359;48.750;9.314;2023-11-22T10:10:36;4.40;99.90
40676;DHT22;26359;48.750;9.314;2023-11-22T10:13:02;4.30;99.90
40676;DHT22;26359;48.750;9.314;2023-11-22T10:15:28;4.30;99.90
40676;DHT22;26359;48.750;9.314;2023-11-22T10:17:55;4.30;99.90
40676;DHT22;26359;48.750;9.314;2023-11-22T10:20:25;4.30;99.90
40676;DHT22;26359;48.750;9.314;2023-11-22T10:22:51;4.30;99.90
40676;DHT22;26359;48.750;9.314;2023-11-22T10:25:17;4.20;99.90
40676;DHT22;26359;48.750;9.314;2023-11-22T10:27:45;4.20;99.90
40676;DHT22;26359;48.750;9.314;2023-11-22T10:30:11;4.10;99.90
40676;DHT22;26359;48.750;9.314;2023-11-22T10:32:37;4.20;99.90
40676;DHT22;26359;48.750;9.314;2023-11-22T10:35:05;4.20;99.90
40676;DHT22;26359;48.750;9.314;2023-11-22T10:37:31;4.30;99.90
40676;DHT22;26359;48.750;9.314;2023-11-22T10:39:57;4.30;99.90
40676;DHT22;26359;48.750;9.314;2023-11-22T10:42:24;4.30;99.90
40676;DHT22;26359;48.750;9.314;2023-11-22T10:44:55;4.40;99.90
40676;DHT22;26359;48.750;9.314;2023-11-22T10:47:24;4.40;99.90
40676;DHT22;26359;48.750;9.314;2023-11-22T10:49:51;4.40;99.90
40676;DHT22;26359;48.750;9.314;2023-11-22T10:52:18;4.40;99.90
40676;DHT22;26359;48.750;9.314;2023-11-22T10:54:50;4.40;99.90
40676;DHT22;26359;48.750;9.314;2023-11-22T10:57:19;4.40;99.90
40676;DHT22;26359;48.750;9.314;2023-11-22T10:59:51;4.40;99.90
40676;DHT22;26359;48.750;9.314;2023-11-22T11:02:21;4.40;99.90
40676;DHT22;26359;48.750;9.314;2023-11-22T11:04:55;4.50;99.90
40676;DHT22;26359;48.750;9.314;2023-11-22T11:07:26;4.50;99.90
40676;DHT22;26359;48.750;9.314;2023-11-22T11:09:56;4.50;99.90
40676;DHT22;26359;48.750;9.314;2023-11-22T11:12:23;4.50;99.90
40676;DHT22;26359;48.750;9.314;2023-11-22T11:14:49;4.60;99.90
40676;DHT22;26359;48.750;9.314;2023-11-22T11:17:16;4.70;99.90
40676;DHT22;26359;48.750;9.314;2023-11-22T11:19:42;4.60;99.90
40676;DHT22;26359;48.750;9.314;2023-11-22T11:22:08;4.60;99.90
40676;DHT22;26359;48.750;9.314;2023-11-22T11:24:39;4.60;99.90
40676;DHT22;26359;48.750;9.314;2023-11-22T11:27:07;4.60;99.90
40676;DHT22;26359;48.750;9.314;2023-11-22T11:29:35;4.70;99.90
40676;DHT22;26359;48.750;9.314;2023-11-22T11:32:05;4.60;99.90
40676;DHT22;26359;48.750;9.314;2023-11-22T11:34:49;4.60;99.90
40676;DHT22;26359;48.750;9.314;2023-11-22T11:37:20;4.60;99.90
40676;DHT22;26359;48.750;9.314;2023-11-22T11:39:46;4.60;99.90
40676;DHT22;26359;48.750;9.314;2023-11-22T11:42:12;4.50;99.90
40676;DHT22;26359;48.750;9.314;2023-11-22T11:45:08;4.50;99.90
40676;DHT22;26359;48.750;9.314;2023-11-22T11:47:36;4.50;99.90
40676;DHT22;26359;48.750;9.314;2023-11-22T11:50:01;4.50;99.90
40676;DHT22;26359;48.750;9.314;2023-11-22T11:52:28;4.50;99.90
40676;DHT22;26359;48.750;9.314;2023-11-22T11:54:56;4.50;99.90
40676;DHT22;26359;48.750;9.314;2023-11-22T11:57:23;4.50;99.90
40676;DHT22;26359;48.750;9.314;2023-11-22T11:59:48;4.50;99.90
40676;DHT22;26359;48.750;9.314;2023-11-22T12:02:15;4.50;99.90
40676;DHT22;26359;48.750;9.314;2023-11-22T12:04:41;4.40;99.90
40676;DHT22;26359;48.750;9.314;2023-11-22T12:07:11;4.40;99.90
40676;DHT22;26359;48.750;9.314;2023-11-22T12:09:37;4.40;99.90
40676;DHT22;26359;48.750;9.314;2023-11-22T12:12:03;4.40;99.90
40676;DHT22;26359;48.750;9.314;2023-11-22T12:14:29;4.40;99.90
40676;DHT22;26359;48.750;9.314;2023-11-22T12:16:54;4.40;99.90
40676;DHT22;26359;48.750;9.314;2023-11-22T12:19:23;4.40;99.90
40676;DHT22;26359;48.750;9.314;2023-11-22T12:21:50;4.30;99.90
40676;DHT22;26359;48.750;9.314;2023-11-22T12:24:16;4.30;99.90
40676;DHT22;26359;48.750;9.314;2023-11-22T12:26:45;4.30;99.90
40676;DHT22;26359;48.750;9.314;2023-11-22T12:29:14;4.30;99.90
40676;DHT22;26359;48.750;9.314;2023-11-22T12:31:48;4.30;99.90
40676;DHT22;26359;48.750;9.314;2023-11-22T12:34:17;4.20;99.90
40676;DHT22;26359;48.750;9.314;2023-11-22T12:36:43;4.30;99.90
40676;DHT22;26359;48.750;9.314;2023-11-22T12:39:09;4.20;99.90
40676;DHT22;26359;48.750;9.314;2023-11-22T12:41:49;4.30;99.90
40676;DHT22;26359;48.750;9.314;2023-11-22T12:44:16;4.20;99.90
40676;DHT22;26359;48.750;9.314;2023-11-22T12:46:52;4.20;99.90
40676;DHT22;26359;48.750;9.314;2023-11-22T12:49:25;4.20;99.90
40676;DHT22;26359;48.750;9.314;2023-11-22T12:51:53;4.10;99.90
40676;DHT22;26359;48.750;9.314;2023-11-22T12:54:18;4.10;99.90
40676;DHT22;26359;48.750;9.314;2023-11-22T12:56:50;4.10;99.90
40676;DHT22;26359;48.750;9.314;2023-11-22T12:59:16;4.10;99.90
40676;DHT22;26359;48.750;9.314;2023-11-22T13:01:44;4.10;99.90
40676;DHT22;26359;48.750;9.314;2023-11-22T13:04:09;4.10;99.90
40676;DHT22;26359;48.750;9.314;2023-11-22T13:06:35;4.10;99.90
40676;DHT22;26359;48.750;9.314;2023-11-22T13:09:01;4.10;99.90
40676;DHT22;26359;48.750;9.314;2023-11-22T13:11:26;4.10;99.90
40676;DHT22;26359;48.750;9.314;2023-11-22T13:13:52;4.10;99.90
40676;DHT22;26359;48.750;9.314;2023-11-22T13:16:17;4.10;99.90
40676;DHT22;26359;48.750;9.314;2023-11-22T13:18:44;4.10;99.90
40676;DHT22;26359;48.750;9.314;2023-11-22T13:21:10;4.10;99.90
40676;DHT22;26359;48.750;9.314;2023-11-22T13:23:36;4.10;99.90
40676;DHT22;26359;48.750;9.314;2023-11-22T13:26:01;4.10;99.90
40676;DHT22;26359;48.750;9.314;2023-11-22T13:28:27;4.10;99.90
40676;DHT22;26359;48.750;9.314;2023-11-22T13:30:53;4.00;99.90
40676;DHT22;26359;48.750;9.314;2023-11-22T13:33:19;4.00;99.90
40676;DHT22;26359;48.750;9.314;2023-11-22T13:35:45;4.00;99.90
40676;DHT22;26359;48.750;9.314;2023-11-22T13:38:12;4.00;99.90
40676;DHT22;26359;48.750;9.314;2023-11-22T13:40:38;4.00;99.90
40676;DHT22;26359;48.750;9.314;2023-11-22T13:43:05;4.00;99.90
40676;DHT22;26359;48.750;9.314;2023-11-22T13:45:31;4.00;99.90
40676;DHT22;26359;48.750;9.314;2023-11-22T13:47:58;4.00;99.90
40676;DHT22;26359;48.750;9.314;2023-11-22T13:50:30;4.00;99.90
40676;DHT22;26359;48.750;9.314;2023-11-22T13:52:56;4.00;99.90
40676;DHT22;26359;48.750;9.314;2023-11-22T13:55:22;4.00;99.90
40676;DHT22;26359;48.750;9.314;2023-11-22T13:57:49;4.10;99.90
40676;DHT22;26359;48.750;9.314;2023-11-22T14:00:16;4.10;99.90
40676;DHT22;26359;48.750;9.314;2023-11-22T14:02:52;4.00;99.90
40676;DHT22;26359;48.750;9.314;2023-11-22T14:05:18;4.00;99.90
40676;DHT22;26359;48.750;9.314;2023-11-22T14:07:44;4.00;99.90
40676;DHT22;26359;48.750;9.314;2023-11-22T14:10:10;4.10;99.90
40676;DHT22;26359;48.750;9.314;2023-11-22T14:12:36;4.10;99.90
40676;DHT22;26359;48.750;9.314;2023-11-22T14:15:03;4.10;99.90
40676;DHT22;26359;48.750;9.314;2023-11-22T14:17:32;4.00;99.90
40676;DHT22;26359;48.750;9.314;2023-11-22T14:19:58;4.00;99.90
40676;DHT22;26359;48.750;9.314;2023-11-22T14:22:24;4.10;99.90
40676;DHT22;26359;48.750;9.314;2023-11-22T14:24:50;4.10;99.90
40676;DHT22;26359;48.750;9.314;2023-11-22T14:27:18;4.00;99.90
40676;DHT22;26359;48.750;9.314;2023-11-22T14:29:45;4.00;99.90
40676;DHT22;26359;48.750;9.314;2023-11-22T14:32:13;3.90;99.90
40676;DHT22;26359;48.750;9.314;2023-11-22T14:34:39;3.90;99.90
40676;DHT22;26359;48.750;9.314;2023-11-22T14:37:05;3.90;99.90
40676;DHT22;26359;48.750;9.314;2023-11-22T14:39:31;4.00;99.90
40676;DHT22;26359;48.750;9.314;2023-11-22T14:41:58;4.00;99.90
40676;DHT22;26359;48.750;9.314;2023-11-22T14:44:24;3.90;99.90
40676;DHT22;26359;48.750;9.314;2023-11-22T14:46:49;3.90;99.90
40676;DHT22;26359;48.750;9.314;2023-11-22T14:49:15;4.00;99.90
40676;DHT22;26359;48.750;9.314;2023-11-22T14:51:41;3.90;99.90
40676;DHT22;26359;48.750;9.314;2023-11-22T14:54:06;3.90;99.90
40676;DHT22;26359;48.750;9.314;2023-11-22T14:56:32;3.90;99.90
40676;DHT22;26359;48.750;9.314;2023-11-22T14:58:59;3.90;99.90
40676;DHT22;26359;48.750;9.314;2023-11-22T15:01:26;3.90;99.90
40676;DHT22;26359;48.750;9.314;2023-11-22T15:03:52;3.90;99.90
40676;DHT22;26359;48.750;9.314;2023-11-22T15:06:22;3.90;99.90
40676;DHT22;26359;48.750;9.314;2023-11-22T15:08:48;3.90;99.90
40676;DHT22;26359;48.750;9.314;2023-11-22T15:11:14;4.00;99.90
40676;DHT22;26359;48.750;9.314;2023-11-22T15:13:43;4.00;99.90
40676;DHT22;26359;48.750;9.314;2023-11-22T15:16:09;4.00;99.90
40676;DHT22;26359;48.750;9.314;2023-11-22T15:18:34;4.00;99.90
40676;DHT22;26359;48.750;9.314;2023-11-22T15:21:00;3.90;99.90
40676;DHT22;26359;48.750;9.314;2023-11-22T15:23:27;3.90;99.90
40676;DHT22;26359;48.750;9.314;2023-11-22T15:25:53;3.90;99.90
40676;DHT22;26359;48.750;9.314;2023-11-22T15:28:19;3.90;99.90
40676;DHT22;26359;48.750;9.314;2023-11-22T15:30:54;3.80;99.90
40676;DHT22;26359;48.750;9.314;2023-11-22T15:33:25;3.90;99.90
40676;DHT22;26359;48.750;9.314;2023-11-22T15:35:50;3.90;99.90
40676;DHT22;26359;48.750;9.314;2023-11-22T15:38:16;3.80;99.90
40676;DHT22;26359;48.750;9.314;2023-11-22T15:40:41;3.90;99.90